Main page
METAR-TAF:

METAR-TAF

Airports :

Béziers Cap d'Agde Airport

Béziers, France

latitude: 43-19N, longitude: 003-21E, elevation: 17 m

Current weather observation

The report was made 19 minutes ago, at 16:00 UTC
Wind 11 kt from the West/Northwest
Temperature 11°C
Humidity 54%
Pressure 1016 hPa
Visibility 10 km or more
no clouds below 1500 m and no cumulonimbus

METAR: LFMU 171600Z AUTO 30011KT CAVOK 11/02 Q1016 NOSIG

Time: 17:19 (16:19 UTC)

Forecast

The report was made 2 hours and 19 minutes ago, at 14:00 UTC
Forecast valid from 17 at 15 UTC to 18 at 15 UTC
Wind 15 kt from the Northwest
Visibility 10 km or more
no clouds below 1500 m and no cumulonimbus
Temporary
from 17 at 16 UTC to 18 at 09 UTC
Wind 2 kt from variable directions

TAF: LFMU 171400Z 1715/1815 32015KT CAVOK TEMPO 1716/1809 VRB02KT

Weather observations and forecasts of more than 4000 airports (METAR and TAF reports).

The available stations are represented by yellow and red dots on the map.

Hover mouse over dot to see the name of the station.

Then click to see weather observations and forecasts.

To change the map : click on the green buttons with a black cross to zoom in, on the green button with a dash to zoom out, or on the green arrows for adjacent maps.


METAR-TAF: